sensor_id;sensor_type;location;lat;lon;timestamp;P1;durP1;ratioP1;P2;durP2;ratioP2
19189;SDS011;9727;50.200;19.038;2023-12-04T00:02:00;39.47;;;18.67;;
19189;SDS011;9727;50.200;19.038;2023-12-04T00:04:29;45.07;;;18.30;;
19189;SDS011;9727;50.200;19.038;2023-12-04T00:06:55;42.90;;;19.17;;
19189;SDS011;9727;50.200;19.038;2023-12-04T00:09:22;40.77;;;19.07;;
19189;SDS011;9727;50.200;19.038;2023-12-04T00:11:51;42.87;;;19.47;;
19189;SDS011;9727;50.200;19.038;2023-12-04T00:14:20;40.00;;;18.47;;
19189;SDS011;9727;50.200;19.038;2023-12-04T00:16:46;41.50;;;18.93;;
19189;SDS011;9727;50.200;19.038;2023-12-04T00:19:13;41.63;;;18.00;;
19189;SDS011;9727;50.200;19.038;2023-12-04T00:21:41;39.23;;;19.13;;
19189;SDS011;9727;50.200;19.038;2023-12-04T00:24:08;40.53;;;18.80;;
19189;SDS011;9727;50.200;19.038;2023-12-04T00:26:34;38.60;;;18.90;;
19189;SDS011;9727;50.200;19.038;2023-12-04T00:29:01;50.13;;;20.87;;
19189;SDS011;9727;50.200;19.038;2023-12-04T00:31:30;42.43;;;19.20;;
19189;SDS011;9727;50.200;19.038;2023-12-04T00:33:57;44.93;;;19.53;;
19189;SDS011;9727;50.200;19.038;2023-12-04T00:36:25;47.90;;;20.67;;
19189;SDS011;9727;50.200;19.038;2023-12-04T00:38:53;45.03;;;20.27;;
19189;SDS011;9727;50.200;19.038;2023-12-04T00:41:20;46.63;;;21.13;;
19189;SDS011;9727;50.200;19.038;2023-12-04T00:43:47;39.70;;;19.43;;
19189;SDS011;9727;50.200;19.038;2023-12-04T00:46:13;41.83;;;19.27;;
19189;SDS011;9727;50.200;19.038;2023-12-04T00:48:49;38.93;;;19.90;;
19189;SDS011;9727;50.200;19.038;2023-12-04T00:51:16;42.73;;;19.17;;
19189;SDS011;9727;50.200;19.038;2023-12-04T00:53:46;43.33;;;20.50;;
19189;SDS011;9727;50.200;19.038;2023-12-04T00:56:14;38.73;;;18.27;;
19189;SDS011;9727;50.200;19.038;2023-12-04T00:58:43;39.67;;;18.63;;
19189;SDS011;9727;50.200;19.038;2023-12-04T01:01:12;44.03;;;18.97;;
19189;SDS011;9727;50.200;19.038;2023-12-04T01:03:39;41.40;;;18.63;;
19189;SDS011;9727;50.200;19.038;2023-12-04T01:06:07;37.97;;;17.47;;
19189;SDS011;9727;50.200;19.038;2023-12-04T01:08:33;40.17;;;18.07;;
19189;SDS011;9727;50.200;19.038;2023-12-04T01:11:00;41.47;;;17.80;;
19189;SDS011;9727;50.200;19.038;2023-12-04T01:13:28;38.63;;;18.37;;
19189;SDS011;9727;50.200;19.038;2023-12-04T01:15:55;40.43;;;19.57;;
19189;SDS011;9727;50.200;19.038;2023-12-04T01:18:22;37.13;;;17.70;;
19189;SDS011;9727;50.200;19.038;2023-12-04T01:20:48;40.57;;;18.37;;
19189;SDS011;9727;50.200;19.038;2023-12-04T01:23:16;39.67;;;18.57;;
19189;SDS011;9727;50.200;19.038;2023-12-04T01:25:45;42.03;;;19.60;;
19189;SDS011;9727;50.200;19.038;2023-12-04T01:28:12;36.47;;;17.57;;
19189;SDS011;9727;50.200;19.038;2023-12-04T01:30:40;40.53;;;18.30;;
19189;SDS011;9727;50.200;19.038;2023-12-04T01:33:07;36.70;;;18.50;;
19189;SDS011;9727;50.200;19.038;2023-12-04T01:35:34;38.97;;;17.93;;
19189;SDS011;9727;50.200;19.038;2023-12-04T01:38:01;40.33;;;19.13;;
19189;SDS011;9727;50.200;19.038;2023-12-04T01:40:27;37.80;;;18.33;;
19189;SDS011;9727;50.200;19.038;2023-12-04T01:42:54;38.57;;;18.50;;
19189;SDS011;9727;50.200;19.038;2023-12-04T01:45:21;43.43;;;19.10;;
19189;SDS011;9727;50.200;19.038;2023-12-04T01:47:49;40.70;;;19.43;;
19189;SDS011;9727;50.200;19.038;2023-12-04T01:50:18;40.37;;;18.37;;
19189;SDS011;9727;50.200;19.038;2023-12-04T01:52:45;37.13;;;17.33;;
19189;SDS011;9727;50.200;19.038;2023-12-04T01:55:12;38.23;;;18.67;;
19189;SDS011;9727;50.200;19.038;2023-12-04T01:57:39;38.53;;;18.20;;
19189;SDS011;9727;50.200;19.038;2023-12-04T02:00:06;39.90;;;17.77;;
19189;SDS011;9727;50.200;19.038;2023-12-04T02:02:37;38.00;;;17.23;;
19189;SDS011;9727;50.200;19.038;2023-12-04T02:05:06;41.90;;;18.73;;
19189;SDS011;9727;50.200;19.038;2023-12-04T02:07:33;35.63;;;17.30;;
19189;SDS011;9727;50.200;19.038;2023-12-04T02:10:01;44.17;;;18.07;;
19189;SDS011;9727;50.200;19.038;2023-12-04T02:12:28;37.67;;;17.23;;
19189;SDS011;9727;50.200;19.038;2023-12-04T02:14:55;36.13;;;17.23;;
19189;SDS011;9727;50.200;19.038;2023-12-04T02:17:23;36.23;;;16.90;;
19189;SDS011;9727;50.200;19.038;2023-12-04T02:19:50;40.83;;;17.83;;
19189;SDS011;9727;50.200;19.038;2023-12-04T02:22:20;49.17;;;19.57;;
19189;SDS011;9727;50.200;19.038;2023-12-04T02:24:48;37.90;;;17.63;;
19189;SDS011;9727;50.200;19.038;2023-12-04T02:27:20;41.97;;;18.53;;
19189;SDS011;9727;50.200;19.038;2023-12-04T02:29:53;32.63;;;15.90;;
19189;SDS011;9727;50.200;19.038;2023-12-04T02:32:23;37.70;;;16.70;;
19189;SDS011;9727;50.200;19.038;2023-12-04T02:34:51;36.20;;;17.13;;
19189;SDS011;9727;50.200;19.038;2023-12-04T02:37:18;41.83;;;17.00;;
19189;SDS011;9727;50.200;19.038;2023-12-04T02:39:45;36.27;;;17.47;;
19189;SDS011;9727;50.200;19.038;2023-12-04T02:42:16;34.60;;;16.50;;
19189;SDS011;9727;50.200;19.038;2023-12-04T02:44:44;39.10;;;17.03;;
19189;SDS011;9727;50.200;19.038;2023-12-04T02:47:11;35.87;;;16.27;;
19189;SDS011;9727;50.200;19.038;2023-12-04T02:49:38;35.40;;;16.90;;
19189;SDS011;9727;50.200;19.038;2023-12-04T02:52:04;34.63;;;15.80;;
19189;SDS011;9727;50.200;19.038;2023-12-04T02:54:31;40.53;;;16.53;;
19189;SDS011;9727;50.200;19.038;2023-12-04T02:56:58;41.07;;;16.83;;
19189;SDS011;9727;50.200;19.038;2023-12-04T02:59:26;31.97;;;15.67;;
19189;SDS011;9727;50.200;19.038;2023-12-04T03:01:53;36.87;;;15.57;;
19189;SDS011;9727;50.200;19.038;2023-12-04T03:04:19;39.37;;;17.30;;
19189;SDS011;9727;50.200;19.038;2023-12-04T03:06:46;31.30;;;15.93;;
19189;SDS011;9727;50.200;19.038;2023-12-04T03:09:12;37.60;;;16.03;;
19189;SDS011;9727;50.200;19.038;2023-12-04T03:11:39;35.90;;;16.90;;
19189;SDS011;9727;50.200;19.038;2023-12-04T03:14:13;36.80;;;17.40;;
19189;SDS011;9727;50.200;19.038;2023-12-04T03:16:44;32.60;;;16.40;;
19189;SDS011;9727;50.200;19.038;2023-12-04T03:19:10;33.70;;;17.00;;
19189;SDS011;9727;50.200;19.038;2023-12-04T03:21:37;37.13;;;17.57;;
19189;SDS011;9727;50.200;19.038;2023-12-04T03:24:04;39.63;;;17.90;;
19189;SDS011;9727;50.200;19.038;2023-12-04T03:26:30;35.83;;;17.63;;
19189;SDS011;9727;50.200;19.038;2023-12-04T03:28:57;37.87;;;18.00;;
19189;SDS011;9727;50.200;19.038;2023-12-04T03:31:23;36.93;;;18.30;;
19189;SDS011;9727;50.200;19.038;2023-12-04T03:33:54;35.67;;;16.73;;
19189;SDS011;9727;50.200;19.038;2023-12-04T03:36:22;34.33;;;17.33;;
19189;SDS011;9727;50.200;19.038;2023-12-04T03:38:48;49.20;;;25.20;;
19189;SDS011;9727;50.200;19.038;2023-12-04T03:41:18;46.40;;;24.00;;
19189;SDS011;9727;50.200;19.038;2023-12-04T03:43:45;38.07;;;19.07;;
19189;SDS011;9727;50.200;19.038;2023-12-04T03:46:11;31.60;;;16.67;;
19189;SDS011;9727;50.200;19.038;2023-12-04T03:48:38;33.63;;;16.90;;
19189;SDS011;9727;50.200;19.038;2023-12-04T03:51:06;31.83;;;16.47;;
19189;SDS011;9727;50.200;19.038;2023-12-04T03:53:33;32.00;;;16.30;;
19189;SDS011;9727;50.200;19.038;2023-12-04T03:55:59;34.13;;;16.53;;
19189;SDS011;9727;50.200;19.038;2023-12-04T03:58:26;32.33;;;16.30;;
19189;SDS011;9727;50.200;19.038;2023-12-04T04:00:53;31.40;;;15.73;;
19189;SDS011;9727;50.200;19.038;2023-12-04T04:03:20;34.37;;;16.73;;
19189;SDS011;9727;50.200;19.038;2023-12-04T04:05:50;35.90;;;16.97;;
19189;SDS011;9727;50.200;19.038;2023-12-04T04:08:21;33.80;;;15.23;;
19189;SDS011;9727;50.200;19.038;2023-12-04T04:10:49;32.30;;;17.27;;
19189;SDS011;9727;50.200;19.038;2023-12-04T04:13:16;33.17;;;16.53;;
19189;SDS011;9727;50.200;19.038;2023-12-04T04:15:46;34.03;;;17.23;;
19189;SDS011;9727;50.200;19.038;2023-12-04T04:18:20;36.07;;;16.63;;
19189;SDS011;9727;50.200;19.038;2023-12-04T04:20:47;38.33;;;18.77;;
19189;SDS011;9727;50.200;19.038;2023-12-04T04:23:14;34.50;;;17.47;;
19189;SDS011;9727;50.200;19.038;2023-12-04T04:25:51;33.10;;;16.33;;
19189;SDS011;9727;50.200;19.038;2023-12-04T04:28:18;32.93;;;16.60;;
19189;SDS011;9727;50.200;19.038;2023-12-04T04:30:45;33.23;;;16.47;;
19189;SDS011;9727;50.200;19.038;2023-12-04T04:33:12;37.33;;;17.23;;
19189;SDS011;9727;50.200;19.038;2023-12-04T04:35:38;34.53;;;17.10;;
19189;SDS011;9727;50.200;19.038;2023-12-04T04:38:05;37.50;;;18.00;;
19189;SDS011;9727;50.200;19.038;2023-12-04T04:40:31;35.57;;;16.67;;
19189;SDS011;9727;50.200;19.038;2023-12-04T04:42:59;36.20;;;17.77;;
19189;SDS011;9727;50.200;19.038;2023-12-04T04:45:26;33.80;;;17.20;;
19189;SDS011;9727;50.200;19.038;2023-12-04T04:47:53;31.67;;;15.93;;
19189;SDS011;9727;50.200;19.038;2023-12-04T04:50:19;33.97;;;16.83;;
19189;SDS011;9727;50.200;19.038;2023-12-04T04:52:46;32.13;;;16.17;;
19189;SDS011;9727;50.200;19.038;2023-12-04T04:55:13;32.83;;;16.53;;
19189;SDS011;9727;50.200;19.038;2023-12-04T04:57:39;32.63;;;16.60;;
19189;SDS011;9727;50.200;19.038;2023-12-04T05:00:08;29.27;;;15.63;;
19189;SDS011;9727;50.200;19.038;2023-12-04T05:02:35;34.03;;;16.40;;
19189;SDS011;9727;50.200;19.038;2023-12-04T05:05:02;33.27;;;16.00;;
19189;SDS011;9727;50.200;19.038;2023-12-04T05:07:29;39.10;;;17.77;;
19189;SDS011;9727;50.200;19.038;2023-12-04T05:09:59;36.87;;;18.40;;
19189;SDS011;9727;50.200;19.038;2023-12-04T05:12:26;40.97;;;20.20;;
19189;SDS011;9727;50.200;19.038;2023-12-04T05:14:53;42.90;;;19.30;;
19189;SDS011;9727;50.200;19.038;2023-12-04T05:17:21;50.10;;;22.83;;
19189;SDS011;9727;50.200;19.038;2023-12-04T05:19:48;52.07;;;24.77;;
19189;SDS011;9727;50.200;19.038;2023-12-04T05:22:14;53.27;;;24.33;;
19189;SDS011;9727;50.200;19.038;2023-12-04T05:24:45;47.40;;;22.13;;
19189;SDS011;9727;50.200;19.038;2023-12-04T05:27:12;42.27;;;19.70;;
19189;SDS011;9727;50.200;19.038;2023-12-04T05:29:38;36.37;;;18.20;;
19189;SDS011;9727;50.200;19.038;2023-12-04T05:32:09;38.70;;;18.90;;
19189;SDS011;9727;50.200;19.038;2023-12-04T05:34:37;41.00;;;20.57;;
19189;SDS011;9727;50.200;19.038;2023-12-04T05:37:03;50.63;;;22.97;;
19189;SDS011;9727;50.200;19.038;2023-12-04T05:39:30;44.57;;;22.20;;
19189;SDS011;9727;50.200;19.038;2023-12-04T05:41:57;48.77;;;23.17;;
19189;SDS011;9727;50.200;19.038;2023-12-04T05:44:24;52.87;;;22.80;;
19189;SDS011;9727;50.200;19.038;2023-12-04T05:46:50;44.67;;;21.97;;
19189;SDS011;9727;50.200;19.038;2023-12-04T05:49:18;46.90;;;21.80;;
19189;SDS011;9727;50.200;19.038;2023-12-04T05:51:46;44.13;;;21.43;;
19189;SDS011;9727;50.200;19.038;2023-12-04T05:54:13;43.10;;;22.13;;
19189;SDS011;9727;50.200;19.038;2023-12-04T05:56:39;42.43;;;21.03;;
19189;SDS011;9727;50.200;19.038;2023-12-04T05:59:06;44.73;;;21.43;;
19189;SDS011;9727;50.200;19.038;2023-12-04T06:01:32;45.60;;;22.33;;
19189;SDS011;9727;50.200;19.038;2023-12-04T06:03:59;38.60;;;19.70;;
19189;SDS011;9727;50.200;19.038;2023-12-04T06:06:26;40.50;;;19.97;;
19189;SDS011;9727;50.200;19.038;2023-12-04T06:08:54;45.27;;;21.37;;
19189;SDS011;9727;50.200;19.038;2023-12-04T06:11:21;51.53;;;23.10;;
19189;SDS011;9727;50.200;19.038;2023-12-04T06:13:48;43.17;;;20.20;;
19189;SDS011;9727;50.200;19.038;2023-12-04T06:16:13;41.53;;;19.73;;
19189;SDS011;9727;50.200;19.038;2023-12-04T06:18:41;43.47;;;20.37;;
19189;SDS011;9727;50.200;19.038;2023-12-04T06:21:08;40.33;;;18.83;;
19189;SDS011;9727;50.200;19.038;2023-12-04T06:23:35;39.40;;;18.97;;
19189;SDS011;9727;50.200;19.038;2023-12-04T06:26:03;39.07;;;18.83;;
19189;SDS011;9727;50.200;19.038;2023-12-04T06:28:30;38.10;;;18.03;;
19189;SDS011;9727;50.200;19.038;2023-12-04T06:30:58;43.17;;;19.43;;
19189;SDS011;9727;50.200;19.038;2023-12-04T06:33:24;44.33;;;21.10;;
19189;SDS011;9727;50.200;19.038;2023-12-04T06:35:51;49.73;;;22.30;;
19189;SDS011;9727;50.200;19.038;2023-12-04T06:38:19;62.43;;;25.13;;
19189;SDS011;9727;50.200;19.038;2023-12-04T06:40:49;52.67;;;23.90;;
19189;SDS011;9727;50.200;19.038;2023-12-04T06:43:21;60.33;;;26.70;;
19189;SDS011;9727;50.200;19.038;2023-12-04T06:45:48;57.93;;;26.07;;
19189;SDS011;9727;50.200;19.038;2023-12-04T06:48:15;60.33;;;27.23;;
19189;SDS011;9727;50.200;19.038;2023-12-04T06:50:44;57.90;;;24.17;;
19189;SDS011;9727;50.200;19.038;2023-12-04T06:53:10;51.90;;;24.23;;
19189;SDS011;9727;50.200;19.038;2023-12-04T06:55:37;56.60;;;26.30;;
19189;SDS011;9727;50.200;19.038;2023-12-04T06:58:04;52.57;;;25.80;;
19189;SDS011;9727;50.200;19.038;2023-12-04T07:00:32;49.50;;;23.90;;
19189;SDS011;9727;50.200;19.038;2023-12-04T07:02:59;43.90;;;20.20;;
19189;SDS011;9727;50.200;19.038;2023-12-04T07:05:26;48.57;;;21.87;;
19189;SDS011;9727;50.200;19.038;2023-12-04T07:07:52;48.23;;;20.37;;
19189;SDS011;9727;50.200;19.038;2023-12-04T07:10:19;40.00;;;20.03;;
19189;SDS011;9727;50.200;19.038;2023-12-04T07:12:45;46.23;;;21.70;;
19189;SDS011;9727;50.200;19.038;2023-12-04T07:15:12;50.50;;;22.90;;
19189;SDS011;9727;50.200;19.038;2023-12-04T07:17:40;45.63;;;22.80;;
19189;SDS011;9727;50.200;19.038;2023-12-04T07:20:07;43.80;;;20.07;;
19189;SDS011;9727;50.200;19.038;2023-12-04T07:22:36;38.67;;;19.00;;
19189;SDS011;9727;50.200;19.038;2023-12-04T07:25:03;41.23;;;18.93;;
19189;SDS011;9727;50.200;19.038;2023-12-04T07:27:32;37.20;;;18.03;;
19189;SDS011;9727;50.200;19.038;2023-12-04T07:29:58;34.37;;;17.33;;
19189;SDS011;9727;50.200;19.038;2023-12-04T07:32:25;40.27;;;17.67;;
19189;SDS011;9727;50.200;19.038;2023-12-04T07:34:53;39.40;;;18.57;;
19189;SDS011;9727;50.200;19.038;2023-12-04T07:37:20;41.47;;;19.50;;
19189;SDS011;9727;50.200;19.038;2023-12-04T07:39:48;40.23;;;19.23;;
19189;SDS011;9727;50.200;19.038;2023-12-04T07:42:14;42.80;;;20.43;;
19189;SDS011;9727;50.200;19.038;2023-12-04T07:44:41;45.17;;;22.10;;
19189;SDS011;9727;50.200;19.038;2023-12-04T07:47:08;41.60;;;21.97;;
19189;SDS011;9727;50.200;19.038;2023-12-04T07:49:35;46.07;;;22.60;;
19189;SDS011;9727;50.200;19.038;2023-12-04T07:52:03;40.57;;;21.07;;
19189;SDS011;9727;50.200;19.038;2023-12-04T07:54:30;42.40;;;22.57;;
19189;SDS011;9727;50.200;19.038;2023-12-04T07:56:56;43.90;;;21.67;;
19189;SDS011;9727;50.200;19.038;2023-12-04T07:59:23;47.43;;;21.80;;
19189;SDS011;9727;50.200;19.038;2023-12-04T08:01:49;41.77;;;20.80;;
19189;SDS011;9727;50.200;19.038;2023-12-04T08:04:19;42.33;;;20.67;;
19189;SDS011;9727;50.200;19.038;2023-12-04T08:06:46;41.07;;;19.67;;
19189;SDS011;9727;50.200;19.038;2023-12-04T08:09:13;38.73;;;19.10;;
19189;SDS011;9727;50.200;19.038;2023-12-04T08:11:45;42.67;;;20.50;;
19189;SDS011;9727;50.200;19.038;2023-12-04T08:14:11;41.13;;;19.60;;
19189;SDS011;9727;50.200;19.038;2023-12-04T08:16:38;35.87;;;18.47;;
19189;SDS011;9727;50.200;19.038;2023-12-04T08:19:05;33.63;;;17.50;;
19189;SDS011;9727;50.200;19.038;2023-12-04T08:21:31;34.20;;;17.93;;
19189;SDS011;9727;50.200;19.038;2023-12-04T08:23:58;39.83;;;17.97;;
19189;SDS011;9727;50.200;19.038;2023-12-04T08:26:27;34.83;;;17.43;;
19189;SDS011;9727;50.200;19.038;2023-12-04T08:28:54;33.23;;;17.00;;
19189;SDS011;9727;50.200;19.038;2023-12-04T08:31:21;32.57;;;15.80;;
19189;SDS011;9727;50.200;19.038;2023-12-04T08:33:48;33.83;;;17.20;;
19189;SDS011;9727;50.200;19.038;2023-12-04T08:36:16;43.83;;;19.80;;
19189;SDS011;9727;50.200;19.038;2023-12-04T08:38:45;36.47;;;17.90;;
19189;SDS011;9727;50.200;19.038;2023-12-04T08:41:19;33.23;;;16.93;;
19189;SDS011;9727;50.200;19.038;2023-12-04T08:43:48;33.97;;;16.83;;
19189;SDS011;9727;50.200;19.038;2023-12-04T08:46:24;30.67;;;16.53;;
19189;SDS011;9727;50.200;19.038;2023-12-04T08:48:51;32.57;;;15.37;;
19189;SDS011;9727;50.200;19.038;2023-12-04T08:51:18;31.00;;;16.10;;
19189;SDS011;9727;50.200;19.038;2023-12-04T08:53:45;32.93;;;16.10;;
19189;SDS011;9727;50.200;19.038;2023-12-04T08:56:12;34.90;;;15.57;;
19189;SDS011;9727;50.200;19.038;2023-12-04T08:58:49;33.97;;;16.83;;
19189;SDS011;9727;50.200;19.038;2023-12-04T09:01:19;32.27;;;16.07;;
19189;SDS011;9727;50.200;19.038;2023-12-04T09:03:45;35.20;;;16.27;;
19189;SDS011;9727;50.200;19.038;2023-12-04T09:06:12;37.20;;;16.37;;
19189;SDS011;9727;50.200;19.038;2023-12-04T09:08:39;38.30;;;18.33;;
19189;SDS011;9727;50.200;19.038;2023-12-04T09:11:06;37.93;;;18.70;;
19189;SDS011;9727;50.200;19.038;2023-12-04T09:13:33;34.80;;;17.20;;
19189;SDS011;9727;50.200;19.038;2023-12-04T09:16:04;34.20;;;17.90;;
19189;SDS011;9727;50.200;19.038;2023-12-04T09:18:30;34.23;;;18.70;;
19189;SDS011;9727;50.200;19.038;2023-12-04T09:20:57;39.60;;;20.37;;
19189;SDS011;9727;50.200;19.038;2023-12-04T09:23:24;40.97;;;19.63;;
19189;SDS011;9727;50.200;19.038;2023-12-04T09:25:50;36.80;;;19.63;;
19189;SDS011;9727;50.200;19.038;2023-12-04T09:28:18;39.53;;;20.07;;
19189;SDS011;9727;50.200;19.038;2023-12-04T09:30:45;37.50;;;20.03;;
19189;SDS011;9727;50.200;19.038;2023-12-04T09:33:13;40.07;;;20.70;;
19189;SDS011;9727;50.200;19.038;2023-12-04T09:35:40;47.83;;;22.83;;
19189;SDS011;9727;50.200;19.038;2023-12-04T09:38:07;43.77;;;21.60;;
19189;SDS011;9727;50.200;19.038;2023-12-04T09:40:34;41.70;;;21.90;;
19189;SDS011;9727;50.200;19.038;2023-12-04T09:43:00;43.97;;;21.37;;
19189;SDS011;9727;50.200;19.038;2023-12-04T09:45:27;41.70;;;21.07;;
19189;SDS011;9727;50.200;19.038;2023-12-04T09:47:55;37.57;;;19.13;;
19189;SDS011;9727;50.200;19.038;2023-12-04T09:50:24;40.47;;;18.73;;
19189;SDS011;9727;50.200;19.038;2023-12-04T09:52:51;41.77;;;20.90;;
19189;SDS011;9727;50.200;19.038;2023-12-04T09:55:18;44.53;;;20.10;;
19189;SDS011;9727;50.200;19.038;2023-12-04T09:57:45;41.70;;;20.37;;
19189;SDS011;9727;50.200;19.038;2023-12-04T10:00:14;42.97;;;20.87;;
19189;SDS011;9727;50.200;19.038;2023-12-04T10:02:44;37.63;;;20.37;;
19189;SDS011;9727;50.200;19.038;2023-12-04T10:05:10;42.07;;;20.43;;
19189;SDS011;9727;50.200;19.038;2023-12-04T10:07:39;43.10;;;20.40;;
19189;SDS011;9727;50.200;19.038;2023-12-04T10:10:05;37.47;;;19.30;;
19189;SDS011;9727;50.200;19.038;2023-12-04T10:12:33;39.93;;;20.30;;
19189;SDS011;9727;50.200;19.038;2023-12-04T10:15:05;36.67;;;18.80;;
19189;SDS011;9727;50.200;19.038;2023-12-04T10:17:35;38.33;;;19.57;;
19189;SDS011;9727;50.200;19.038;2023-12-04T10:20:04;39.47;;;20.50;;
19189;SDS011;9727;50.200;19.038;2023-12-04T10:22:36;38.70;;;21.17;;
19189;SDS011;9727;50.200;19.038;2023-12-04T10:25:13;40.10;;;20.70;;
19189;SDS011;9727;50.200;19.038;2023-12-04T10:27:40;37.33;;;20.60;;
19189;SDS011;9727;50.200;19.038;2023-12-04T10:30:07;40.10;;;20.43;;
19189;SDS011;9727;50.200;19.038;2023-12-04T10:32:36;37.03;;;19.13;;
19189;SDS011;9727;50.200;19.038;2023-12-04T10:35:03;34.23;;;17.93;;
19189;SDS011;9727;50.200;19.038;2023-12-04T10:37:35;42.13;;;19.07;;
19189;SDS011;9727;50.200;19.038;2023-12-04T10:40:02;39.17;;;18.80;;
19189;SDS011;9727;50.200;19.038;2023-12-04T10:42:35;35.63;;;19.10;;
19189;SDS011;9727;50.200;19.038;2023-12-04T10:45:01;40.27;;;19.63;;
19189;SDS011;9727;50.200;19.038;2023-12-04T10:47:31;36.17;;;19.47;;
19189;SDS011;9727;50.200;19.038;2023-12-04T10:50:00;32.13;;;17.47;;
19189;SDS011;9727;50.200;19.038;2023-12-04T10:52:28;34.77;;;17.77;;
19189;SDS011;9727;50.200;19.038;2023-12-04T10:54:55;33.90;;;17.47;;
19189;SDS011;9727;50.200;19.038;2023-12-04T10:57:25;31.83;;;17.20;;
19189;SDS011;9727;50.200;19.038;2023-12-04T10:59:55;32.17;;;15.70;;
19189;SDS011;9727;50.200;19.038;2023-12-04T11:02:25;35.00;;;16.47;;
19189;SDS011;9727;50.200;19.038;2023-12-04T11:04:53;31.30;;;15.70;;
19189;SDS011;9727;50.200;19.038;2023-12-04T11:07:21;32.07;;;16.33;;
19189;SDS011;9727;50.200;19.038;2023-12-04T11:09:53;38.10;;;17.43;;
19189;SDS011;9727;50.200;19.038;2023-12-04T11:12:20;37.47;;;18.93;;
19189;SDS011;9727;50.200;19.038;2023-12-04T11:14:50;42.80;;;21.57;;
19189;SDS011;9727;50.200;19.038;2023-12-04T11:17:20;35.80;;;19.23;;
19189;SDS011;9727;50.200;19.038;2023-12-04T11:19:50;31.77;;;17.13;;
19189;SDS011;9727;50.200;19.038;2023-12-04T11:22:18;31.63;;;15.27;;
19189;SDS011;9727;50.200;19.038;2023-12-04T11:24:46;27.80;;;15.13;;
19189;SDS011;9727;50.200;19.038;2023-12-04T11:27:14;30.03;;;15.90;;
19189;SDS011;9727;50.200;19.038;2023-12-04T11:29:43;31.40;;;15.93;;
19189;SDS011;9727;50.200;19.038;2023-12-04T11:32:13;29.47;;;15.97;;
19189;SDS011;9727;50.200;19.038;2023-12-04T11:34:46;32.70;;;16.63;;
19189;SDS011;9727;50.200;19.038;2023-12-04T11:37:13;27.53;;;14.70;;
19189;SDS011;9727;50.200;19.038;2023-12-04T11:39:41;30.43;;;15.47;;
19189;SDS011;9727;50.200;19.038;2023-12-04T11:42:07;31.33;;;16.17;;
19189;SDS011;9727;50.200;19.038;2023-12-04T11:44:36;29.50;;;15.20;;
19189;SDS011;9727;50.200;19.038;2023-12-04T11:47:04;35.97;;;17.70;;
19189;SDS011;9727;50.200;19.038;2023-12-04T11:49:31;36.57;;;17.83;;
19189;SDS011;9727;50.200;19.038;2023-12-04T11:52:00;34.13;;;16.50;;
19189;SDS011;9727;50.200;19.038;2023-12-04T11:54:27;30.63;;;15.73;;
19189;SDS011;9727;50.200;19.038;2023-12-04T11:56:56;37.30;;;16.77;;
19189;SDS011;9727;50.200;19.038;2023-12-04T11:59:24;33.73;;;17.03;;
19189;SDS011;9727;50.200;19.038;2023-12-04T12:01:52;25.23;;;14.40;;
19189;SDS011;9727;50.200;19.038;2023-12-04T12:04:20;34.30;;;15.97;;
19189;SDS011;9727;50.200;19.038;2023-12-04T12:06:46;32.07;;;16.97;;
19189;SDS011;9727;50.200;19.038;2023-12-04T12:09:18;36.37;;;17.57;;
19189;SDS011;9727;50.200;19.038;2023-12-04T12:11:45;30.63;;;16.47;;
19189;SDS011;9727;50.200;19.038;2023-12-04T12:14:12;30.27;;;16.03;;
19189;SDS011;9727;50.200;19.038;2023-12-04T12:16:39;30.93;;;16.20;;
19189;SDS011;9727;50.200;19.038;2023-12-04T12:19:06;37.77;;;17.83;;
19189;SDS011;9727;50.200;19.038;2023-12-04T12:21:33;36.73;;;16.93;;
19189;SDS011;9727;50.200;19.038;2023-12-04T12:23:59;37.17;;;17.33;;
19189;SDS011;9727;50.200;19.038;2023-12-04T12:26:28;38.70;;;17.23;;
19189;SDS011;9727;50.200;19.038;2023-12-04T12:28:54;41.13;;;18.47;;
19189;SDS011;9727;50.200;19.038;2023-12-04T12:31:21;32.37;;;17.63;;
19189;SDS011;9727;50.200;19.038;2023-12-04T12:33:48;36.40;;;17.60;;
19189;SDS011;9727;50.200;19.038;2023-12-04T12:36:14;33.50;;;17.13;;
19189;SDS011;9727;50.200;19.038;2023-12-04T12:38:45;32.93;;;17.20;;
19189;SDS011;9727;50.200;19.038;2023-12-04T12:41:14;33.20;;;17.67;;
19189;SDS011;9727;50.200;19.038;2023-12-04T12:43:45;32.93;;;17.87;;
19189;SDS011;9727;50.200;19.038;2023-12-04T12:46:12;37.63;;;19.53;;
19189;SDS011;9727;50.200;19.038;2023-12-04T12:48:39;47.13;;;23.30;;
19189;SDS011;9727;50.200;19.038;2023-12-04T12:51:06;45.20;;;21.47;;
19189;SDS011;9727;50.200;19.038;2023-12-04T12:53:36;51.97;;;25.70;;
19189;SDS011;9727;50.200;19.038;2023-12-04T12:56:03;56.17;;;25.20;;
19189;SDS011;9727;50.200;19.038;2023-12-04T12:58:30;53.90;;;24.53;;
19189;SDS011;9727;50.200;19.038;2023-12-04T13:00:59;61.10;;;29.87;;
19189;SDS011;9727;50.200;19.038;2023-12-04T13:03:26;63.37;;;30.57;;
19189;SDS011;9727;50.200;19.038;2023-12-04T13:05:53;64.57;;;29.77;;
19189;SDS011;9727;50.200;19.038;2023-12-04T13:08:20;61.70;;;30.57;;
19189;SDS011;9727;50.200;19.038;2023-12-04T13:10:47;61.57;;;31.00;;
19189;SDS011;9727;50.200;19.038;2023-12-04T13:13:16;57.47;;;30.00;;
19189;SDS011;9727;50.200;19.038;2023-12-04T13:15:45;66.13;;;32.27;;
19189;SDS011;9727;50.200;19.038;2023-12-04T13:18:13;64.93;;;31.47;;
19189;SDS011;9727;50.200;19.038;2023-12-04T13:20:40;76.10;;;33.63;;
19189;SDS011;9727;50.200;19.038;2023-12-04T13:23:06;76.10;;;37.63;;
19189;SDS011;9727;50.200;19.038;2023-12-04T13:25:33;72.20;;;34.20;;
19189;SDS011;9727;50.200;19.038;2023-12-04T13:28:01;65.70;;;32.50;;
19189;SDS011;9727;50.200;19.038;2023-12-04T13:30:27;71.63;;;33.17;;
19189;SDS011;9727;50.200;19.038;2023-12-04T13:32:54;64.53;;;30.43;;
19189;SDS011;9727;50.200;19.038;2023-12-04T13:35:22;70.00;;;31.47;;
19189;SDS011;9727;50.200;19.038;2023-12-04T13:37:49;62.90;;;31.87;;
19189;SDS011;9727;50.200;19.038;2023-12-04T13:40:20;72.03;;;32.80;;
19189;SDS011;9727;50.200;19.038;2023-12-04T13:42:51;63.67;;;32.13;;
19189;SDS011;9727;50.200;19.038;2023-12-04T13:45:35;58.60;;;30.80;;
19189;SDS011;9727;50.200;19.038;2023-12-04T13:48:02;56.17;;;28.57;;
19189;SDS011;9727;50.200;19.038;2023-12-04T13:50:30;55.90;;;29.07;;
19189;SDS011;9727;50.200;19.038;2023-12-04T13:52:57;52.07;;;28.50;;
19189;SDS011;9727;50.200;19.038;2023-12-04T13:55:24;57.60;;;28.87;;
19189;SDS011;9727;50.200;19.038;2023-12-04T13:58:08;53.43;;;26.37;;
19189;SDS011;9727;50.200;19.038;2023-12-04T14:00:56;56.37;;;26.97;;
19189;SDS011;9727;50.200;19.038;2023-12-04T14:03:22;61.33;;;30.80;;
19189;SDS011;9727;50.200;19.038;2023-12-04T14:05:50;62.87;;;29.03;;
19189;SDS011;9727;50.200;19.038;2023-12-04T14:08:18;64.07;;;32.53;;
19189;SDS011;9727;50.200;19.038;2023-12-04T14:10:45;61.63;;;30.73;;
19189;SDS011;9727;50.200;19.038;2023-12-04T14:13:12;57.73;;;28.00;;
19189;SDS011;9727;50.200;19.038;2023-12-04T14:15:39;61.60;;;30.27;;
19189;SDS011;9727;50.200;19.038;2023-12-04T14:18:06;55.60;;;27.67;;
19189;SDS011;9727;50.200;19.038;2023-12-04T14:20:32;58.30;;;27.93;;
19189;SDS011;9727;50.200;19.038;2023-12-04T14:23:00;55.43;;;28.33;;
19189;SDS011;9727;50.200;19.038;2023-12-04T14:25:26;49.60;;;26.67;;